Kezdőlap
METAR-TAF:

METAR-TAF

Repülőterek :

Auckland, Új-Zéland

földrajzi szélesség: 37-01S, földrajzi hosszúság: 174-48E, magasság: 7 m

Jelenlegi meteorológiai megfigyelések

A jelentés 32 perccel ezelõtt készült, 14:30 UTC
Déli szél 5 kt
Hőmérséklet 13°C
Páratartalom 94%
Légköri nyomás 1012 hPa
Látótávolság 10 km, vagy több

METAR: NZAA 191430Z AUTO 18005KT 9999 BKN036/// 13/12 Q1012 NOSIG

Idő: 03:02 (15:02 UTC)

Előrejelzés

A jelentés 4 órával és 1 perccel ezelõtt készült, 11:01 UTC
Az előrejelzés 19-én 12 óra UTC és 20-én 12 óra UTC között érvényes
Déli szél 8 kt
Látótávolság 10 km, vagy több
Szórványos felhőzet 2500 lábon
19-én 21 óra UTC és 19-én 23 óra UTC között fokozatosan kialakuló
Délnyugati szél 10 kt

TAF: NZAA 191101Z 1912/2012 17008KT 9999 SCT025 BECMG 1921/1923 23010KT

Meteorológiai megfigyelések és előrejelzések több, mint 4000 repülőtéren (METAR és TAF jelentéseket).

A térképen piros és sárga pontok jelzik az elérhető meteorológiai állomásokat.

Mozgassa az egeret a pont fölött, hogy megjelenjen az állomás neve.

Azután kattintson az időjárási megfigyelések és előrejelzések megtekintéséhez.

A térkép megváltoztatása: kattintson a fekete keresztel jelölt zöld gombra ráközelítéshez, a vonallal jelölt zöld gombra távolításhoz, vagy a zöld nyilakra a szomszédos térképek eléréséhez.


METAR-TAF: